sensor_id;sensor_type;location;lat;lon;timestamp;P1;durP1;ratioP1;P2;durP2;ratioP2
5295;SDS011;2670;42.720;23.336;2022-09-01T00:01:14;17.70;;;11.57;;
5295;SDS011;2670;42.720;23.336;2022-09-01T00:03:45;16.77;;;11.47;;
5295;SDS011;2670;42.720;23.336;2022-09-01T00:06:13;15.63;;;11.33;;
5295;SDS011;2670;42.720;23.336;2022-09-01T00:08:40;15.33;;;11.87;;
5295;SDS011;2670;42.720;23.336;2022-09-01T00:11:08;14.80;;;11.57;;
5295;SDS011;2670;42.720;23.336;2022-09-01T00:13:35;14.73;;;11.83;;
5295;SDS011;2670;42.720;23.336;2022-09-01T00:16:02;17.97;;;12.87;;
5295;SDS011;2670;42.720;23.336;2022-09-01T00:18:29;16.00;;;12.57;;
5295;SDS011;2670;42.720;23.336;2022-09-01T00:20:56;16.30;;;12.73;;
5295;SDS011;2670;42.720;23.336;2022-09-01T00:23:24;17.77;;;12.97;;
5295;SDS011;2670;42.720;23.336;2022-09-01T00:25:51;18.83;;;12.63;;
5295;SDS011;2670;42.720;23.336;2022-09-01T00:28:19;18.30;;;12.03;;
5295;SDS011;2670;42.720;23.336;2022-09-01T00:30:46;26.13;;;13.37;;
5295;SDS011;2670;42.720;23.336;2022-09-01T00:33:13;16.33;;;11.67;;
5295;SDS011;2670;42.720;23.336;2022-09-01T00:35:40;18.57;;;13.80;;
5295;SDS011;2670;42.720;23.336;2022-09-01T00:38:06;21.27;;;12.23;;
5295;SDS011;2670;42.720;23.336;2022-09-01T00:40:33;18.70;;;13.60;;
5295;SDS011;2670;42.720;23.336;2022-09-01T00:43:00;16.50;;;12.20;;
5295;SDS011;2670;42.720;23.336;2022-09-01T00:45:37;19.30;;;12.77;;
5295;SDS011;2670;42.720;23.336;2022-09-01T00:48:03;18.50;;;13.03;;
5295;SDS011;2670;42.720;23.336;2022-09-01T00:50:30;18.10;;;12.57;;
5295;SDS011;2670;42.720;23.336;2022-09-01T00:52:57;17.93;;;12.33;;
5295;SDS011;2670;42.720;23.336;2022-09-01T00:55:26;28.93;;;11.53;;
5295;SDS011;2670;42.720;23.336;2022-09-01T00:57:55;20.00;;;13.10;;
5295;SDS011;2670;42.720;23.336;2022-09-01T01:00:27;17.03;;;12.00;;
5295;SDS011;2670;42.720;23.336;2022-09-01T01:02:57;16.67;;;12.87;;
5295;SDS011;2670;42.720;23.336;2022-09-01T01:05:24;18.40;;;12.50;;
5295;SDS011;2670;42.720;23.336;2022-09-01T01:07:57;20.40;;;13.50;;
5295;SDS011;2670;42.720;23.336;2022-09-01T01:10:25;18.33;;;12.60;;
5295;SDS011;2670;42.720;23.336;2022-09-01T01:13:00;18.47;;;12.57;;
5295;SDS011;2670;42.720;23.336;2022-09-01T01:15:27;20.40;;;13.97;;
5295;SDS011;2670;42.720;23.336;2022-09-01T01:17:54;21.60;;;14.20;;
5295;SDS011;2670;42.720;23.336;2022-09-01T01:20:24;18.83;;;13.73;;
5295;SDS011;2670;42.720;23.336;2022-09-01T01:23:14;17.90;;;13.37;;
5295;SDS011;2670;42.720;23.336;2022-09-01T01:25:49;19.53;;;14.27;;
5295;SDS011;2670;42.720;23.336;2022-09-01T01:28:18;19.60;;;13.97;;
5295;SDS011;2670;42.720;23.336;2022-09-01T01:30:49;21.33;;;13.90;;
5295;SDS011;2670;42.720;23.336;2022-09-01T01:33:18;20.77;;;13.60;;
5295;SDS011;2670;42.720;23.336;2022-09-01T01:35:46;19.47;;;13.57;;
5295;SDS011;2670;42.720;23.336;2022-09-01T01:38:15;26.03;;;16.60;;
5295;SDS011;2670;42.720;23.336;2022-09-01T01:40:44;24.80;;;15.73;;
5295;SDS011;2670;42.720;23.336;2022-09-01T01:43:13;21.90;;;14.53;;
5295;SDS011;2670;42.720;23.336;2022-09-01T01:45:44;23.97;;;15.90;;
5295;SDS011;2670;42.720;23.336;2022-09-01T01:48:11;25.40;;;15.33;;
5295;SDS011;2670;42.720;23.336;2022-09-01T01:50:39;23.30;;;14.10;;
5295;SDS011;2670;42.720;23.336;2022-09-01T01:53:07;26.10;;;14.90;;
5295;SDS011;2670;42.720;23.336;2022-09-01T01:55:41;22.90;;;14.30;;
5295;SDS011;2670;42.720;23.336;2022-09-01T01:58:08;21.23;;;14.30;;
5295;SDS011;2670;42.720;23.336;2022-09-01T02:00:37;33.83;;;14.33;;
5295;SDS011;2670;42.720;23.336;2022-09-01T02:03:06;24.10;;;14.60;;
5295;SDS011;2670;42.720;23.336;2022-09-01T02:05:34;24.87;;;15.03;;
5295;SDS011;2670;42.720;23.336;2022-09-01T02:08:03;23.93;;;14.03;;
5295;SDS011;2670;42.720;23.336;2022-09-01T02:10:32;22.30;;;15.00;;
5295;SDS011;2670;42.720;23.336;2022-09-01T02:13:02;20.83;;;14.33;;
5295;SDS011;2670;42.720;23.336;2022-09-01T02:15:31;23.47;;;15.50;;
5295;SDS011;2670;42.720;23.336;2022-09-01T02:18:09;29.63;;;14.93;;
5295;SDS011;2670;42.720;23.336;2022-09-01T02:20:38;27.47;;;15.87;;
5295;SDS011;2670;42.720;23.336;2022-09-01T02:23:06;26.27;;;16.73;;
5295;SDS011;2670;42.720;23.336;2022-09-01T02:25:35;31.57;;;17.83;;
5295;SDS011;2670;42.720;23.336;2022-09-01T02:28:03;32.43;;;17.30;;
5295;SDS011;2670;42.720;23.336;2022-09-01T02:30:33;40.40;;;19.50;;
5295;SDS011;2670;42.720;23.336;2022-09-01T02:33:02;28.87;;;18.20;;
5295;SDS011;2670;42.720;23.336;2022-09-01T02:35:31;34.20;;;20.73;;
5295;SDS011;2670;42.720;23.336;2022-09-01T02:37:58;36.10;;;20.70;;
5295;SDS011;2670;42.720;23.336;2022-09-01T02:40:25;34.90;;;21.17;;
5295;SDS011;2670;42.720;23.336;2022-09-01T02:42:54;43.33;;;22.67;;
5295;SDS011;2670;42.720;23.336;2022-09-01T02:45:22;38.77;;;22.47;;
5295;SDS011;2670;42.720;23.336;2022-09-01T02:47:49;40.53;;;22.13;;
5295;SDS011;2670;42.720;23.336;2022-09-01T02:50:18;49.87;;;23.30;;
5295;SDS011;2670;42.720;23.336;2022-09-01T02:52:47;50.17;;;24.00;;
5295;SDS011;2670;42.720;23.336;2022-09-01T02:55:16;45.83;;;21.50;;
5295;SDS011;2670;42.720;23.336;2022-09-01T02:57:47;37.20;;;21.10;;
5295;SDS011;2670;42.720;23.336;2022-09-01T03:00:16;33.77;;;21.80;;
5295;SDS011;2670;42.720;23.336;2022-09-01T03:02:53;39.10;;;20.97;;
5295;SDS011;2670;42.720;23.336;2022-09-01T03:05:21;35.93;;;22.13;;
5295;SDS011;2670;42.720;23.336;2022-09-01T03:07:53;39.57;;;22.07;;
5295;SDS011;2670;42.720;23.336;2022-09-01T03:10:23;35.50;;;21.07;;
5295;SDS011;2670;42.720;23.336;2022-09-01T03:12:57;35.43;;;20.27;;
5295;SDS011;2670;42.720;23.336;2022-09-01T03:15:25;35.07;;;21.10;;
5295;SDS011;2670;42.720;23.336;2022-09-01T03:17:52;44.60;;;22.97;;
5295;SDS011;2670;42.720;23.336;2022-09-01T03:20:20;38.50;;;22.27;;
5295;SDS011;2670;42.720;23.336;2022-09-01T03:22:47;45.40;;;22.20;;
5295;SDS011;2670;42.720;23.336;2022-09-01T03:25:16;36.43;;;18.80;;
5295;SDS011;2670;42.720;23.336;2022-09-01T03:27:43;45.03;;;21.00;;
5295;SDS011;2670;42.720;23.336;2022-09-01T03:30:11;40.10;;;19.03;;
5295;SDS011;2670;42.720;23.336;2022-09-01T03:32:39;38.90;;;20.97;;
5295;SDS011;2670;42.720;23.336;2022-09-01T03:35:06;41.90;;;19.20;;
5295;SDS011;2670;42.720;23.336;2022-09-01T03:37:33;31.50;;;18.40;;
5295;SDS011;2670;42.720;23.336;2022-09-01T03:40:02;38.57;;;20.80;;
5295;SDS011;2670;42.720;23.336;2022-09-01T03:42:31;32.33;;;19.37;;
5295;SDS011;2670;42.720;23.336;2022-09-01T03:44:58;42.10;;;20.00;;
5295;SDS011;2670;42.720;23.336;2022-09-01T03:47:27;35.37;;;19.30;;
5295;SDS011;2670;42.720;23.336;2022-09-01T03:49:54;44.40;;;21.23;;
5295;SDS011;2670;42.720;23.336;2022-09-01T03:52:23;40.57;;;20.73;;
5295;SDS011;2670;42.720;23.336;2022-09-01T03:54:54;53.07;;;19.13;;
5295;SDS011;2670;42.720;23.336;2022-09-01T03:57:23;35.83;;;19.50;;
5295;SDS011;2670;42.720;23.336;2022-09-01T03:59:53;36.67;;;20.07;;
5295;SDS011;2670;42.720;23.336;2022-09-01T04:02:20;38.13;;;20.93;;
5295;SDS011;2670;42.720;23.336;2022-09-01T04:04:47;34.33;;;18.93;;
5295;SDS011;2670;42.720;23.336;2022-09-01T04:07:14;31.67;;;18.47;;
5295;SDS011;2670;42.720;23.336;2022-09-01T04:09:40;34.43;;;20.23;;
5295;SDS011;2670;42.720;23.336;2022-09-01T04:12:08;29.73;;;17.93;;
5295;SDS011;2670;42.720;23.336;2022-09-01T04:14:39;29.63;;;18.70;;
5295;SDS011;2670;42.720;23.336;2022-09-01T04:17:07;28.43;;;17.53;;
5295;SDS011;2670;42.720;23.336;2022-09-01T04:19:52;30.73;;;18.53;;
5295;SDS011;2670;42.720;23.336;2022-09-01T04:22:19;32.57;;;18.40;;
5295;SDS011;2670;42.720;23.336;2022-09-01T04:24:47;32.80;;;18.97;;
5295;SDS011;2670;42.720;23.336;2022-09-01T04:27:14;31.77;;;19.33;;
5295;SDS011;2670;42.720;23.336;2022-09-01T04:29:42;31.43;;;19.23;;
5295;SDS011;2670;42.720;23.336;2022-09-01T04:32:12;38.00;;;19.63;;
5295;SDS011;2670;42.720;23.336;2022-09-01T04:34:39;32.40;;;19.40;;
5295;SDS011;2670;42.720;23.336;2022-09-01T04:37:07;38.67;;;20.80;;
5295;SDS011;2670;42.720;23.336;2022-09-01T04:39:37;36.93;;;19.23;;
5295;SDS011;2670;42.720;23.336;2022-09-01T04:42:04;34.33;;;20.10;;
5295;SDS011;2670;42.720;23.336;2022-09-01T04:44:33;31.27;;;17.87;;
5295;SDS011;2670;42.720;23.336;2022-09-01T04:47:00;39.83;;;21.50;;
5295;SDS011;2670;42.720;23.336;2022-09-01T04:49:28;41.77;;;20.07;;
5295;SDS011;2670;42.720;23.336;2022-09-01T04:51:57;40.23;;;22.40;;
5295;SDS011;2670;42.720;23.336;2022-09-01T04:54:24;35.20;;;19.07;;
5295;SDS011;2670;42.720;23.336;2022-09-01T04:56:51;36.70;;;20.33;;
5295;SDS011;2670;42.720;23.336;2022-09-01T04:59:19;41.40;;;21.67;;
5295;SDS011;2670;42.720;23.336;2022-09-01T05:01:47;36.53;;;19.30;;
5295;SDS011;2670;42.720;23.336;2022-09-01T05:04:15;38.70;;;21.13;;
5295;SDS011;2670;42.720;23.336;2022-09-01T05:06:46;32.93;;;20.90;;
5295;SDS011;2670;42.720;23.336;2022-09-01T05:09:15;34.27;;;19.30;;
5295;SDS011;2670;42.720;23.336;2022-09-01T05:11:42;36.57;;;21.00;;
5295;SDS011;2670;42.720;23.336;2022-09-01T05:14:10;43.40;;;22.27;;
5295;SDS011;2670;42.720;23.336;2022-09-01T05:16:37;40.00;;;22.50;;
5295;SDS011;2670;42.720;23.336;2022-09-01T05:19:07;40.80;;;21.73;;
5295;SDS011;2670;42.720;23.336;2022-09-01T05:21:38;36.73;;;21.80;;
5295;SDS011;2670;42.720;23.336;2022-09-01T05:24:11;35.27;;;21.07;;
5295;SDS011;2670;42.720;23.336;2022-09-01T05:26:40;36.53;;;21.27;;
5295;SDS011;2670;42.720;23.336;2022-09-01T05:29:08;39.70;;;22.37;;
5295;SDS011;2670;42.720;23.336;2022-09-01T05:31:38;33.93;;;20.07;;
5295;SDS011;2670;42.720;23.336;2022-09-01T05:34:06;44.60;;;22.60;;
5295;SDS011;2670;42.720;23.336;2022-09-01T05:36:35;43.67;;;24.50;;
5295;SDS011;2670;42.720;23.336;2022-09-01T05:39:04;44.87;;;24.03;;
5295;SDS011;2670;42.720;23.336;2022-09-01T05:41:33;49.23;;;23.90;;
5295;SDS011;2670;42.720;23.336;2022-09-01T05:44:01;40.00;;;23.37;;
5295;SDS011;2670;42.720;23.336;2022-09-01T05:46:32;54.07;;;24.40;;
5295;SDS011;2670;42.720;23.336;2022-09-01T05:49:01;51.00;;;22.50;;
5295;SDS011;2670;42.720;23.336;2022-09-01T05:51:31;45.43;;;24.30;;
5295;SDS011;2670;42.720;23.336;2022-09-01T05:53:58;40.13;;;22.20;;
5295;SDS011;2670;42.720;23.336;2022-09-01T05:56:26;49.33;;;24.37;;
5295;SDS011;2670;42.720;23.336;2022-09-01T05:58:55;50.47;;;25.77;;
5295;SDS011;2670;42.720;23.336;2022-09-01T06:01:24;40.30;;;25.03;;
5295;SDS011;2670;42.720;23.336;2022-09-01T06:03:53;40.97;;;24.70;;
5295;SDS011;2670;42.720;23.336;2022-09-01T06:06:22;48.97;;;26.07;;
5295;SDS011;2670;42.720;23.336;2022-09-01T06:08:50;48.23;;;26.20;;
5295;SDS011;2670;42.720;23.336;2022-09-01T06:11:19;43.00;;;23.70;;
5295;SDS011;2670;42.720;23.336;2022-09-01T06:13:46;44.30;;;25.83;;
5295;SDS011;2670;42.720;23.336;2022-09-01T06:16:17;43.23;;;24.17;;
5295;SDS011;2670;42.720;23.336;2022-09-01T06:18:45;55.83;;;28.33;;
5295;SDS011;2670;42.720;23.336;2022-09-01T06:21:11;54.60;;;25.40;;
5295;SDS011;2670;42.720;23.336;2022-09-01T06:23:39;59.53;;;26.93;;
5295;SDS011;2670;42.720;23.336;2022-09-01T06:26:14;45.33;;;26.20;;
5295;SDS011;2670;42.720;23.336;2022-09-01T06:28:42;58.17;;;28.73;;
5295;SDS011;2670;42.720;23.336;2022-09-01T06:31:09;47.93;;;24.90;;
5295;SDS011;2670;42.720;23.336;2022-09-01T06:33:38;46.80;;;24.60;;
5295;SDS011;2670;42.720;23.336;2022-09-01T06:36:05;54.40;;;26.93;;
5295;SDS011;2670;42.720;23.336;2022-09-01T06:38:34;44.60;;;24.37;;
5295;SDS011;2670;42.720;23.336;2022-09-01T06:41:01;57.10;;;27.40;;
5295;SDS011;2670;42.720;23.336;2022-09-01T06:43:34;51.13;;;26.60;;
5295;SDS011;2670;42.720;23.336;2022-09-01T06:46:03;47.03;;;24.70;;
5295;SDS011;2670;42.720;23.336;2022-09-01T06:48:30;51.80;;;28.07;;
5295;SDS011;2670;42.720;23.336;2022-09-01T06:50:59;55.53;;;29.17;;
5295;SDS011;2670;42.720;23.336;2022-09-01T06:53:27;53.70;;;28.10;;
5295;SDS011;2670;42.720;23.336;2022-09-01T06:55:56;75.07;;;31.07;;
5295;SDS011;2670;42.720;23.336;2022-09-01T06:58:23;53.13;;;27.10;;
5295;SDS011;2670;42.720;23.336;2022-09-01T07:00:50;61.03;;;28.47;;
5295;SDS011;2670;42.720;23.336;2022-09-01T07:03:17;52.30;;;28.30;;
5295;SDS011;2670;42.720;23.336;2022-09-01T07:05:46;56.40;;;29.67;;
5295;SDS011;2670;42.720;23.336;2022-09-01T07:08:17;56.00;;;28.77;;
5295;SDS011;2670;42.720;23.336;2022-09-01T07:10:47;49.63;;;27.07;;
5295;SDS011;2670;42.720;23.336;2022-09-01T07:13:16;55.03;;;27.87;;
5295;SDS011;2670;42.720;23.336;2022-09-01T07:15:48;53.03;;;27.57;;
5295;SDS011;2670;42.720;23.336;2022-09-01T07:18:17;49.70;;;28.00;;
5295;SDS011;2670;42.720;23.336;2022-09-01T07:20:47;49.23;;;28.00;;
5295;SDS011;2670;42.720;23.336;2022-09-01T07:23:16;57.53;;;29.37;;
5295;SDS011;2670;42.720;23.336;2022-09-01T07:25:44;48.77;;;26.90;;
5295;SDS011;2670;42.720;23.336;2022-09-01T07:28:14;56.07;;;33.50;;
5295;SDS011;2670;42.720;23.336;2022-09-01T07:30:43;58.30;;;31.80;;
5295;SDS011;2670;42.720;23.336;2022-09-01T07:33:12;55.30;;;29.07;;
5295;SDS011;2670;42.720;23.336;2022-09-01T07:35:40;60.57;;;30.93;;
5295;SDS011;2670;42.720;23.336;2022-09-01T07:38:08;50.17;;;28.83;;
5295;SDS011;2670;42.720;23.336;2022-09-01T07:40:36;56.13;;;29.63;;
5295;SDS011;2670;42.720;23.336;2022-09-01T07:43:04;57.50;;;30.47;;
5295;SDS011;2670;42.720;23.336;2022-09-01T07:45:33;50.63;;;31.97;;
5295;SDS011;2670;42.720;23.336;2022-09-01T07:48:06;58.93;;;33.43;;
5295;SDS011;2670;42.720;23.336;2022-09-01T07:50:34;54.73;;;33.53;;
5295;SDS011;2670;42.720;23.336;2022-09-01T07:53:02;48.10;;;32.27;;
5295;SDS011;2670;42.720;23.336;2022-09-01T07:55:29;52.13;;;34.03;;
5295;SDS011;2670;42.720;23.336;2022-09-01T07:57:58;48.13;;;34.63;;
5295;SDS011;2670;42.720;23.336;2022-09-01T08:00:24;51.13;;;35.20;;
5295;SDS011;2670;42.720;23.336;2022-09-01T08:02:52;51.60;;;33.33;;
5295;SDS011;2670;42.720;23.336;2022-09-01T08:05:19;65.03;;;37.23;;
5295;SDS011;2670;42.720;23.336;2022-09-01T08:07:51;47.60;;;34.90;;
5295;SDS011;2670;42.720;23.336;2022-09-01T08:10:18;61.33;;;35.00;;
5295;SDS011;2670;42.720;23.336;2022-09-01T08:12:45;53.00;;;33.40;;
5295;SDS011;2670;42.720;23.336;2022-09-01T08:15:13;54.37;;;33.30;;
5295;SDS011;2670;42.720;23.336;2022-09-01T08:17:41;47.40;;;30.97;;
5295;SDS011;2670;42.720;23.336;2022-09-01T08:20:09;52.27;;;32.17;;
5295;SDS011;2670;42.720;23.336;2022-09-01T08:22:37;54.70;;;31.47;;
5295;SDS011;2670;42.720;23.336;2022-09-01T08:25:04;51.83;;;29.90;;
5295;SDS011;2670;42.720;23.336;2022-09-01T08:27:31;50.57;;;28.70;;
5295;SDS011;2670;42.720;23.336;2022-09-01T08:30:00;45.33;;;27.63;;
5295;SDS011;2670;42.720;23.336;2022-09-01T08:32:30;49.57;;;29.97;;
5295;SDS011;2670;42.720;23.336;2022-09-01T08:34:57;45.10;;;25.70;;
5295;SDS011;2670;42.720;23.336;2022-09-01T08:37:23;40.23;;;24.13;;
5295;SDS011;2670;42.720;23.336;2022-09-01T08:39:50;35.77;;;22.93;;
5295;SDS011;2670;42.720;23.336;2022-09-01T08:42:20;35.40;;;22.87;;
5295;SDS011;2670;42.720;23.336;2022-09-01T08:45:00;33.10;;;22.60;;
5295;SDS011;2670;42.720;23.336;2022-09-01T08:47:36;32.73;;;20.80;;
5295;SDS011;2670;42.720;23.336;2022-09-01T08:50:03;31.93;;;19.07;;
5295;SDS011;2670;42.720;23.336;2022-09-01T08:52:32;43.20;;;20.53;;
5295;SDS011;2670;42.720;23.336;2022-09-01T08:55:02;24.97;;;16.27;;
5295;SDS011;2670;42.720;23.336;2022-09-01T08:57:35;29.13;;;17.57;;
5295;SDS011;2670;42.720;23.336;2022-09-01T09:00:04;42.00;;;18.40;;
5295;SDS011;2670;42.720;23.336;2022-09-01T09:02:41;25.23;;;17.07;;
5295;SDS011;2670;42.720;23.336;2022-09-01T09:05:21;39.00;;;18.00;;
5295;SDS011;2670;42.720;23.336;2022-09-01T09:08:01;27.80;;;16.93;;
5295;SDS011;2670;42.720;23.336;2022-09-01T09:10:37;25.50;;;15.10;;
5295;SDS011;2670;42.720;23.336;2022-09-01T09:13:15;28.23;;;13.97;;
5295;SDS011;2670;42.720;23.336;2022-09-01T09:15:50;27.33;;;16.13;;
5295;SDS011;2670;42.720;23.336;2022-09-01T09:18:22;22.23;;;15.70;;
5295;SDS011;2670;42.720;23.336;2022-09-01T09:21:00;25.57;;;15.43;;
5295;SDS011;2670;42.720;23.336;2022-09-01T09:23:35;27.27;;;14.67;;
5295;SDS011;2670;42.720;23.336;2022-09-01T09:26:07;25.43;;;13.80;;
5295;SDS011;2670;42.720;23.336;2022-09-01T09:28:33;20.03;;;14.20;;
5295;SDS011;2670;42.720;23.336;2022-09-01T09:33:58;16.43;;;11.90;;
5295;SDS011;2670;42.720;23.336;2022-09-01T09:36:29;15.47;;;10.90;;
5295;SDS011;2670;42.720;23.336;2022-09-01T09:39:05;18.43;;;11.57;;
5295;SDS011;2670;42.720;23.336;2022-09-01T09:41:40;20.23;;;11.43;;
5295;SDS011;2670;42.720;23.336;2022-09-01T09:44:19;14.10;;;10.47;;
5295;SDS011;2670;42.720;23.336;2022-09-01T09:46:50;18.13;;;10.63;;
5295;SDS011;2670;42.720;23.336;2022-09-01T09:49:19;14.40;;;9.97;;
5295;SDS011;2670;42.720;23.336;2022-09-01T09:51:49;17.67;;;10.80;;
5295;SDS011;2670;42.720;23.336;2022-09-01T09:54:19;16.03;;;10.30;;
5295;SDS011;2670;42.720;23.336;2022-09-01T09:57:00;12.63;;;9.00;;
5295;SDS011;2670;42.720;23.336;2022-09-01T09:59:31;14.67;;;9.50;;
5295;SDS011;2670;42.720;23.336;2022-09-01T10:02:13;12.13;;;9.27;;
5295;SDS011;2670;42.720;23.336;2022-09-01T10:04:49;13.20;;;8.20;;
5295;SDS011;2670;42.720;23.336;2022-09-01T10:07:27;15.77;;;11.10;;
5295;SDS011;2670;42.720;23.336;2022-09-01T10:09:57;14.23;;;9.07;;
5295;SDS011;2670;42.720;23.336;2022-09-01T10:12:26;14.90;;;8.70;;
5295;SDS011;2670;42.720;23.336;2022-09-01T10:14:56;17.57;;;9.03;;
5295;SDS011;2670;42.720;23.336;2022-09-01T10:17:28;13.23;;;8.10;;
5295;SDS011;2670;42.720;23.336;2022-09-01T10:20:01;14.37;;;9.47;;
5295;SDS011;2670;42.720;23.336;2022-09-01T10:22:32;10.60;;;8.63;;
5295;SDS011;2670;42.720;23.336;2022-09-01T10:25:00;11.47;;;8.60;;
5295;SDS011;2670;42.720;23.336;2022-09-01T10:27:28;10.50;;;8.47;;
5295;SDS011;2670;42.720;23.336;2022-09-01T10:30:01;12.63;;;9.10;;
5295;SDS011;2670;42.720;23.336;2022-09-01T10:32:32;13.50;;;10.30;;
5295;SDS011;2670;42.720;23.336;2022-09-01T10:35:09;20.13;;;9.87;;
5295;SDS011;2670;42.720;23.336;2022-09-01T10:37:40;23.23;;;10.40;;
5295;SDS011;2670;42.720;23.336;2022-09-01T10:40:18;16.57;;;10.00;;
5295;SDS011;2670;42.720;23.336;2022-09-01T10:43:21;30.17;;;11.00;;
5295;SDS011;2670;42.720;23.336;2022-09-01T10:45:55;16.00;;;10.20;;
5295;SDS011;2670;42.720;23.336;2022-09-01T10:48:23;15.13;;;10.40;;
5295;SDS011;2670;42.720;23.336;2022-09-01T10:51:33;17.87;;;11.17;;
5295;SDS011;2670;42.720;23.336;2022-09-01T10:54:03;15.17;;;10.90;;
5295;SDS011;2670;42.720;23.336;2022-09-01T10:56:36;15.07;;;10.30;;
5295;SDS011;2670;42.720;23.336;2022-09-01T10:59:07;14.00;;;9.10;;
5295;SDS011;2670;42.720;23.336;2022-09-01T11:07:42;11.67;;;9.30;;
5295;SDS011;2670;42.720;23.336;2022-09-01T11:10:21;20.27;;;10.43;;
5295;SDS011;2670;42.720;23.336;2022-09-01T11:22:06;15.20;;;9.33;;
5295;SDS011;2670;42.720;23.336;2022-09-01T11:24:44;12.60;;;8.57;;
5295;SDS011;2670;42.720;23.336;2022-09-01T11:30:36;12.03;;;8.87;;
5295;SDS011;2670;42.720;23.336;2022-09-01T11:33:22;11.63;;;8.93;;
5295;SDS011;2670;42.720;23.336;2022-09-01T11:35:58;10.23;;;8.40;;
5295;SDS011;2670;42.720;23.336;2022-09-01T11:38:27;11.90;;;9.40;;
5295;SDS011;2670;42.720;23.336;2022-09-01T11:40:57;10.70;;;8.53;;
5295;SDS011;2670;42.720;23.336;2022-09-01T11:43:25;12.10;;;9.50;;
5295;SDS011;2670;42.720;23.336;2022-09-01T11:45:56;12.00;;;8.90;;
5295;SDS011;2670;42.720;23.336;2022-09-01T11:48:31;13.77;;;8.67;;
5295;SDS011;2670;42.720;23.336;2022-09-01T11:50:59;14.17;;;9.07;;
5295;SDS011;2670;42.720;23.336;2022-09-01T11:53:27;15.00;;;9.40;;
5295;SDS011;2670;42.720;23.336;2022-09-01T11:55:55;14.80;;;9.70;;
5295;SDS011;2670;42.720;23.336;2022-09-01T11:58:41;13.37;;;8.73;;
5295;SDS011;2670;42.720;23.336;2022-09-01T12:01:13;9.57;;;8.57;;
5295;SDS011;2670;42.720;23.336;2022-09-01T12:03:43;13.43;;;8.60;;
5295;SDS011;2670;42.720;23.336;2022-09-01T12:06:12;12.20;;;9.67;;
5295;SDS011;2670;42.720;23.336;2022-09-01T12:08:50;12.70;;;9.50;;
5295;SDS011;2670;42.720;23.336;2022-09-01T12:11:20;10.70;;;8.60;;
5295;SDS011;2670;42.720;23.336;2022-09-01T12:13:55;13.73;;;9.17;;
5295;SDS011;2670;42.720;23.336;2022-09-01T12:16:24;10.80;;;8.30;;
5295;SDS011;2670;42.720;23.336;2022-09-01T12:18:52;15.30;;;8.77;;
5295;SDS011;2670;42.720;23.336;2022-09-01T12:21:21;16.20;;;9.47;;
5295;SDS011;2670;42.720;23.336;2022-09-01T12:23:50;11.10;;;9.23;;
5295;SDS011;2670;42.720;23.336;2022-09-01T12:26:18;15.27;;;9.50;;
5295;SDS011;2670;42.720;23.336;2022-09-01T12:28:56;11.07;;;9.07;;
5295;SDS011;2670;42.720;23.336;2022-09-01T12:31:24;10.77;;;9.13;;
5295;SDS011;2670;42.720;23.336;2022-09-01T12:33:52;14.60;;;9.90;;
5295;SDS011;2670;42.720;23.336;2022-09-01T12:36:22;13.27;;;9.80;;
5295;SDS011;2670;42.720;23.336;2022-09-01T12:38:51;12.60;;;9.87;;
5295;SDS011;2670;42.720;23.336;2022-09-01T12:41:23;13.63;;;10.67;;
5295;SDS011;2670;42.720;23.336;2022-09-01T12:43:51;19.63;;;9.90;;
5295;SDS011;2670;42.720;23.336;2022-09-01T12:49:17;11.87;;;9.50;;
5295;SDS011;2670;42.720;23.336;2022-09-01T12:51:45;15.27;;;10.87;;
5295;SDS011;2670;42.720;23.336;2022-09-01T12:54:12;17.07;;;10.43;;
5295;SDS011;2670;42.720;23.336;2022-09-01T12:56:45;11.30;;;9.63;;
5295;SDS011;2670;42.720;23.336;2022-09-01T12:59:19;16.20;;;10.33;;
5295;SDS011;2670;42.720;23.336;2022-09-01T13:01:49;22.77;;;11.37;;
5295;SDS011;2670;42.720;23.336;2022-09-01T13:04:24;16.77;;;11.07;;
5295;SDS011;2670;42.720;23.336;2022-09-01T13:06:54;12.70;;;10.33;;
5295;SDS011;2670;42.720;23.336;2022-09-01T13:09:22;15.27;;;9.60;;
5295;SDS011;2670;42.720;23.336;2022-09-01T13:11:49;15.97;;;10.53;;
5295;SDS011;2670;42.720;23.336;2022-09-01T13:14:16;16.37;;;9.60;;
5295;SDS011;2670;42.720;23.336;2022-09-01T13:16:43;17.70;;;9.83;;
5295;SDS011;2670;42.720;23.336;2022-09-01T13:19:11;17.17;;;9.77;;
5295;SDS011;2670;42.720;23.336;2022-09-01T13:21:38;15.10;;;11.20;;
5295;SDS011;2670;42.720;23.336;2022-09-01T13:24:05;11.07;;;9.40;;
5295;SDS011;2670;42.720;23.336;2022-09-01T13:26:33;11.67;;;8.93;;
5295;SDS011;2670;42.720;23.336;2022-09-01T13:29:00;14.70;;;9.30;;
5295;SDS011;2670;42.720;23.336;2022-09-01T13:31:27;12.97;;;9.10;;
5295;SDS011;2670;42.720;23.336;2022-09-01T13:33:55;12.23;;;10.03;;
5295;SDS011;2670;42.720;23.336;2022-09-01T13:36:24;12.23;;;9.23;;
5295;SDS011;2670;42.720;23.336;2022-09-01T13:38:51;11.80;;;9.90;;
5295;SDS011;2670;42.720;23.336;2022-09-01T13:41:17;17.70;;;8.97;;
5295;SDS011;2670;42.720;23.336;2022-09-01T13:43:44;16.13;;;10.47;;
5295;SDS011;2670;42.720;23.336;2022-09-01T13:46:11;17.27;;;9.30;;
5295;SDS011;2670;42.720;23.336;2022-09-01T13:48:38;11.83;;;8.37;;
5295;SDS011;2670;42.720;23.336;2022-09-01T13:51:05;13.33;;;9.87;;
5295;SDS011;2670;42.720;23.336;2022-09-01T13:53:33;10.47;;;9.33;;
5295;SDS011;2670;42.720;23.336;2022-09-01T13:55:59;12.23;;;8.40;;
5295;SDS011;2670;42.720;23.336;2022-09-01T13:58:26;14.20;;;9.00;;
5295;SDS011;2670;42.720;23.336;2022-09-01T14:00:53;16.50;;;9.47;;
5295;SDS011;2670;42.720;23.336;2022-09-01T14:03:21;11.53;;;9.07;;
5295;SDS011;2670;42.720;23.336;2022-09-01T14:05:49;10.93;;;8.77;;
5295;SDS011;2670;42.720;23.336;2022-09-01T14:08:18;10.47;;;8.40;;
5295;SDS011;2670;42.720;23.336;2022-09-01T14:10:48;13.50;;;8.33;;
5295;SDS011;2670;42.720;23.336;2022-09-01T14:13:17;12.47;;;8.40;;
5295;SDS011;2670;42.720;23.336;2022-09-01T14:15:45;12.23;;;9.53;;
5295;SDS011;2670;42.720;23.336;2022-09-01T14:18:13;12.67;;;9.20;;
5295;SDS011;2670;42.720;23.336;2022-09-01T14:20:42;12.33;;;9.87;;
5295;SDS011;2670;42.720;23.336;2022-09-01T14:23:10;13.73;;;10.30;;
5295;SDS011;2670;42.720;23.336;2022-09-01T14:25:40;14.40;;;9.97;;
5295;SDS011;2670;42.720;23.336;2022-09-01T14:28:09;14.50;;;9.77;;
5295;SDS011;2670;42.720;23.336;2022-09-01T14:30:37;13.70;;;9.87;;
5295;SDS011;2670;42.720;23.336;2022-09-01T14:33:05;18.23;;;10.40;;
5295;SDS011;2670;42.720;23.336;2022-09-01T14:35:32;13.80;;;10.40;;
5295;SDS011;2670;42.720;23.336;2022-09-01T14:38:00;14.23;;;10.50;;
5295;SDS011;2670;42.720;23.336;2022-09-01T14:40:29;11.30;;;8.60;;
5295;SDS011;2670;42.720;23.336;2022-09-01T14:42:56;13.97;;;9.90;;
5295;SDS011;2670;42.720;23.336;2022-09-01T14:45:24;16.33;;;10.37;;
5295;SDS011;2670;42.720;23.336;2022-09-01T14:47:53;15.57;;;11.30;;
5295;SDS011;2670;42.720;23.336;2022-09-01T14:50:23;20.50;;;10.67;;
5295;SDS011;2670;42.720;23.336;2022-09-01T14:52:51;16.63;;;11.80;;
5295;SDS011;2670;42.720;23.336;2022-09-01T14:55:19;17.07;;;11.40;;
5295;SDS011;2670;42.720;23.336;2022-09-01T14:57:46;19.30;;;10.73;;
5295;SDS011;2670;42.720;23.336;2022-09-01T15:00:13;17.17;;;11.20;;
5295;SDS011;2670;42.720;23.336;2022-09-01T15:02:46;14.40;;;11.40;;
5295;SDS011;2670;42.720;23.336;2022-09-01T15:05:16;13.03;;;10.80;;
5295;SDS011;2670;42.720;23.336;2022-09-01T15:07:44;14.17;;;10.10;;
5295;SDS011;2670;42.720;23.336;2022-09-01T15:10:12;15.07;;;10.70;;
5295;SDS011;2670;42.720;23.336;2022-09-01T15:12:41;14.43;;;10.33;;
5295;SDS011;2670;42.720;23.336;2022-09-01T15:15:09;12.27;;;9.10;;
5295;SDS011;2670;42.720;23.336;2022-09-01T15:17:36;12.87;;;8.80;;